Klondike, Texas
Current Conditions -  °F | °C
As of 6:15 AM on Sunday 23 Nov 2014 (Local Time) from KSLR Reporting Station
Haze Haze  
Wind Chill: 58°   Ceiling: 2000
Heat Index: 58°   Visibility: 3mi
Dew Point: 58°   Wind: 0mph
Humidity: 100%   Direction: NA
Pressure: 29.62"   Gusts: NA
Location:  33.33°N, 95.76°W
Report Text: KSLR 231215Z AUTO 00000KT 3SM BR BKN020 BKN029 15/15 A2962 RMK AO2 T01450145
Loading
Personal Weather Stations






























Interactive Weather Map New forecast layout! Learn more

10-Day Weather Forecast

Advertisements
Track Severe Weather on mobile